Time;durP1;ratioP1;P1;durP2;ratioP2;P2;SDS_P1;SDS_P2;PMS_P1;PMS_P2;Temp;Humidity;BMP_temperature;BMP_pressure;BME280_temperature;BME280_humidity;BME280_pressure;Samples;Min_cycle;Max_cycle;Signal;HPM_P1;HPM_P2
2021/12/08 00:02:09;;;;;;;50.47;25.80;;;;;;;;;;5076115;28;20036;-63
2021/12/08 00:04:35;;;;;;;44.15;25.55;;;;;;;;;;5076414;28;20427;-63
2021/12/08 00:07:02;;;;;;;47.78;25.75;;;;;;;;;;5075759;28;20381;-63
2021/12/08 00:09:46;;;;;;;46.50;25.67;;;;;;;;;;5076081;28;20033;-63
2021/12/08 00:14:58;;;;;;;45.67;24.08;;;;;;;;;;5075694;28;20599;-63
2021/12/08 00:17:24;;;;;;;48.80;24.75;;;;;;;;;;5075851;28;20029;-63
2021/12/08 00:19:51;;;;;;;50.42;26.00;;;;;;;;;;5057961;28;20020;-63
2021/12/08 00:22:17;;;;;;;47.88;25.90;;;;;;;;;;5075742;28;20103;-63
2021/12/08 00:24:44;;;;;;;48.28;25.40;;;;;;;;;;5075782;28;20120;-63
2021/12/08 00:27:11;;;;;;;45.83;24.65;;;;;;;;;;5075373;28;20380;-63
2021/12/08 00:29:38;;;;;;;46.92;24.92;;;;;;;;;;5075394;28;20052;-63
2021/12/08 00:32:06;;;;;;;50.40;26.02;;;;;;;;;;5075700;28;20107;-63
2021/12/08 00:34:33;;;;;;;46.20;24.77;;;;;;;;;;5075146;28;20124;-63
2021/12/08 00:37:01;;;;;;;55.42;25.75;;;;;;;;;;5057637;28;20032;-63
2021/12/08 00:39:27;;;;;;;49.10;26.08;;;;;;;;;;5075510;28;20073;-62
2021/12/08 00:41:53;;;;;;;46.83;24.92;;;;;;;;;;5075483;28;20024;-63
2021/12/08 00:44:20;;;;;;;44.47;23.08;;;;;;;;;;5075389;28;20037;-63
2021/12/08 00:46:46;;;;;;;48.58;25.05;;;;;;;;;;5075441;28;20032;-63
2021/12/08 00:49:15;;;;;;;49.03;25.38;;;;;;;;;;5075314;28;20056;-64
2021/12/08 00:51:41;;;;;;;46.65;23.85;;;;;;;;;;5074797;28;20512;-63
2021/12/08 00:54:08;;;;;;;51.20;27.20;;;;;;;;;;5075129;28;20056;-63
2021/12/08 00:56:34;;;;;;;46.10;25.40;;;;;;;;;;5057263;28;20486;-63
2021/12/08 00:59:00;;;;;;;48.72;24.02;;;;;;;;;;5075144;28;20544;-63
2021/12/08 01:01:27;;;;;;;40.15;23.75;;;;;;;;;;5075086;28;20036;-63
2021/12/08 01:03:53;;;;;;;48.45;24.38;;;;;;;;;;5056341;28;20522;-63
2021/12/08 01:06:20;;;;;;;47.75;25.48;;;;;;;;;;5075305;28;20029;-63
2021/12/08 01:08:46;;;;;;;47.10;24.88;;;;;;;;;;5074940;28;20369;-63
2021/12/08 01:11:18;;;;;;;47.50;24.48;;;;;;;;;;5074947;28;20033;-63
2021/12/08 01:13:45;;;;;;;51.22;25.83;;;;;;;;;;5056837;28;20036;-63
2021/12/08 01:16:12;;;;;;;45.92;24.02;;;;;;;;;;5074810;28;20067;-64
2021/12/08 01:18:38;;;;;;;45.28;23.88;;;;;;;;;;5056760;28;20123;-63
2021/12/08 01:21:09;;;;;;;44.47;24.55;;;;;;;;;;5056775;28;20028;-64
2021/12/08 01:23:36;;;;;;;48.70;24.90;;;;;;;;;;5074413;28;20036;-63
2021/12/08 01:26:03;;;;;;;48.13;24.23;;;;;;;;;;5074617;28;20020;-64
2021/12/08 01:28:29;;;;;;;46.92;25.55;;;;;;;;;;5074539;28;20037;-64
2021/12/08 01:30:56;;;;;;;48.88;26.02;;;;;;;;;;5074542;28;20036;-64
2021/12/08 01:33:24;;;;;;;48.25;25.45;;;;;;;;;;5074377;28;20103;-64
2021/12/08 01:35:50;;;;;;;49.15;24.42;;;;;;;;;;5056472;28;20051;-64
2021/12/08 01:38:17;;;;;;;50.53;25.58;;;;;;;;;;5056384;28;20028;-63
2021/12/08 01:40:43;;;;;;;47.10;24.58;;;;;;;;;;5074289;28;20112;-65
2021/12/08 01:43:23;;;;;;;47.42;24.25;;;;;;;;;;5056353;28;20036;-63
2021/12/08 01:46:00;;;;;;;47.70;24.60;;;;;;;;;;5074275;28;20142;-63
2021/12/08 01:48:27;;;;;;;45.72;24.30;;;;;;;;;;5074202;28;20020;-64
2021/12/08 01:50:55;;;;;;;47.67;23.92;;;;;;;;;;5073737;28;20041;-64
2021/12/08 01:53:22;;;;;;;44.47;25.48;;;;;;;;;;5073938;28;20020;-63
2021/12/08 01:55:49;;;;;;;47.17;25.80;;;;;;;;;;5074016;28;20032;-63
2021/12/08 01:58:16;;;;;;;51.95;25.02;;;;;;;;;;5073953;28;20493;-63
2021/12/08 02:00:45;;;;;;;47.28;23.08;;;;;;;;;;5073941;28;20028;-64
2021/12/08 02:03:11;;;;;;;52.13;24.92;;;;;;;;;;5073813;28;20415;-64
2021/12/08 02:05:38;;;;;;;48.55;23.88;;;;;;;;;;5074091;28;20453;-63
2021/12/08 02:08:05;;;;;;;47.67;23.77;;;;;;;;;;5073769;28;20112;-64
2021/12/08 02:10:31;;;;;;;40.47;22.98;;;;;;;;;;5055815;28;20052;-65
2021/12/08 02:12:57;;;;;;;45.35;24.70;;;;;;;;;;5073350;28;20064;-63
2021/12/08 02:15:24;;;;;;;45.00;23.88;;;;;;;;;;5054664;28;20036;-64
2021/12/08 02:17:52;;;;;;;43.13;23.88;;;;;;;;;;5073282;28;20528;-63
2021/12/08 02:20:20;;;;;;;45.17;24.85;;;;;;;;;;5073243;28;20403;-64
2021/12/08 02:22:46;;;;;;;46.05;23.63;;;;;;;;;;5055460;28;20028;-63
2021/12/08 02:25:15;;;;;;;42.05;22.20;;;;;;;;;;5073029;28;20493;-63
2021/12/08 02:27:42;;;;;;;42.33;22.25;;;;;;;;;;5073520;28;20024;-64
2021/12/08 02:30:57;;;;;;;43.10;23.40;;;;;;;;;;5073399;28;20035;-63
2021/12/08 02:49:13;;;;;;;43.08;21.70;;;;;;;;;;5073193;28;20489;-64
2021/12/08 02:51:40;;;;;;;40.05;20.48;;;;;;;;;;5072698;28;20139;-63
2021/12/08 02:54:06;;;;;;;40.88;22.45;;;;;;;;;;5072943;28;20401;-63
2021/12/08 02:56:33;;;;;;;42.22;22.48;;;;;;;;;;5055131;28;20039;-63
2021/12/08 02:59:00;;;;;;;44.63;22.92;;;;;;;;;;5073003;28;20028;-64
2021/12/08 03:01:27;;;;;;;44.08;23.40;;;;;;;;;;5073052;28;20059;-63
2021/12/08 03:03:53;;;;;;;38.13;19.88;;;;;;;;;;5073002;28;20032;-64
2021/12/08 03:06:20;;;;;;;39.47;21.08;;;;;;;;;;5073015;28;20033;-63
2021/12/08 03:08:47;;;;;;;40.47;20.42;;;;;;;;;;5072961;28;20036;-64
2021/12/08 03:11:22;;;;;;;40.17;20.95;;;;;;;;;;5072958;28;20161;-64
2021/12/08 03:14:15;;;;;;;39.00;21.00;;;;;;;;;;5072739;28;20380;-63
2021/12/08 03:16:43;;;;;;;42.90;20.75;;;;;;;;;;5068400;28;20504;-64
2021/12/08 03:19:09;;;;;;;40.60;20.00;;;;;;;;;;5054901;28;20025;-63
2021/12/08 03:21:36;;;;;;;41.55;21.05;;;;;;;;;;5072838;28;20029;-64
2021/12/08 03:24:24;;;;;;;38.30;18.63;;;;;;;;;;5072834;28;20030;-63
2021/12/08 03:29:35;;;;;;;39.33;20.10;;;;;;;;;;5076907;28;20107;-63
2021/12/08 03:32:06;;;;;;;38.65;20.95;;;;;;;;;;5076522;28;20385;-65
2021/12/08 03:34:36;;;;;;;43.28;20.95;;;;;;;;;;5058761;28;20123;-63
2021/12/08 03:37:04;;;;;;;37.72;19.92;;;;;;;;;;5058742;28;20435;-63
2021/12/08 03:39:30;;;;;;;37.53;19.85;;;;;;;;;;5076662;28;20024;-63
2021/12/08 03:41:56;;;;;;;38.33;18.90;;;;;;;;;;5076605;28;20480;-64
2021/12/08 03:44:23;;;;;;;42.08;21.88;;;;;;;;;;5076534;28;20024;-65
2021/12/08 03:46:50;;;;;;;41.03;20.55;;;;;;;;;;5076534;28;20021;-64
2021/12/08 03:49:17;;;;;;;40.25;22.00;;;;;;;;;;5076475;28;20056;-64
2021/12/08 03:51:44;;;;;;;42.75;22.17;;;;;;;;;;5075967;28;20056;-64
2021/12/08 03:54:11;;;;;;;49.08;24.23;;;;;;;;;;5076267;28;20098;-64
2021/12/08 03:56:38;;;;;;;41.88;20.73;;;;;;;;;;5058291;28;20062;-64
2021/12/08 03:59:05;;;;;;;42.85;23.30;;;;;;;;;;5076297;28;20063;-64
2021/12/08 04:01:32;;;;;;;38.78;21.92;;;;;;;;;;5057954;28;20051;-64
2021/12/08 04:04:03;;;;;;;47.28;23.63;;;;;;;;;;5075858;28;20031;-63
2021/12/08 04:06:33;;;;;;;45.13;23.75;;;;;;;;;;5076151;28;20021;-63
2021/12/08 04:09:04;;;;;;;43.30;21.80;;;;;;;;;;5076062;28;20392;-64
2021/12/08 04:11:31;;;;;;;39.45;22.65;;;;;;;;;;5076094;28;20116;-63
2021/12/08 04:13:59;;;;;;;40.53;20.92;;;;;;;;;;5075935;28;20046;-64
2021/12/08 04:16:28;;;;;;;41.92;22.27;;;;;;;;;;5075582;28;20433;-64
2021/12/08 04:18:57;;;;;;;44.97;22.30;;;;;;;;;;5075859;28;20025;-65
2021/12/08 04:21:24;;;;;;;43.47;21.73;;;;;;;;;;5057834;28;20020;-63
2021/12/08 04:23:50;;;;;;;43.65;21.45;;;;;;;;;;5075787;28;20473;-63
2021/12/08 04:26:19;;;;;;;47.72;21.60;;;;;;;;;;5076047;28;20043;-64
2021/12/08 04:29:00;;;;;;;40.65;20.73;;;;;;;;;;5075944;28;20021;-63
2021/12/08 04:31:29;;;;;;;39.42;21.25;;;;;;;;;;5075192;28;20366;-63
2021/12/08 04:34:00;;;;;;;42.15;21.05;;;;;;;;;;5075545;28;20419;-63
2021/12/08 04:36:31;;;;;;;48.22;23.23;;;;;;;;;;5075685;28;20032;-63
2021/12/08 04:39:01;;;;;;;50.80;23.83;;;;;;;;;;5074217;28;20469;-63
2021/12/08 04:41:37;;;;;;;39.53;18.85;;;;;;;;;;5075495;28;20052;-63
2021/12/08 04:44:34;;;;;;;41.95;21.33;;;;;;;;;;5057520;28;20025;-62
2021/12/08 04:47:19;;;;;;;34.83;19.05;;;;;;;;;;5074638;28;20037;-63
2021/12/08 04:52:31;;;;;;;34.05;18.88;;;;;;;;;;5075383;28;20121;-63
2021/12/08 05:00:58;;;;;;;42.33;20.95;;;;;;;;;;5074946;28;20487;-63
2021/12/08 05:07:02;;;;;;;46.45;24.25;;;;;;;;;;5075130;28;20032;-63
2021/12/08 05:08:54;;;;;;;41.30;22.33;;;;;;;;;;5065289;28;20028;-62
2021/12/08 05:11:23;;;;;;;40.50;22.02;;;;;;;;;;5056939;28;20025;-63
2021/12/08 05:13:52;;;;;;;44.78;22.77;;;;;;;;;;5074809;28;20029;-63
2021/12/08 05:16:20;;;;;;;44.55;23.23;;;;;;;;;;5074775;28;20107;-62
2021/12/08 05:18:48;;;;;;;46.83;24.20;;;;;;;;;;5075136;28;20151;-63
2021/12/08 05:21:35;;;;;;;52.03;25.48;;;;;;;;;;5074741;28;20025;-63
2021/12/08 05:24:09;;;;;;;56.80;26.00;;;;;;;;;;5056688;28;20029;-63
2021/12/08 05:26:57;;;;;;;56.20;29.02;;;;;;;;;;5074636;28;20024;-63
2021/12/08 05:29:34;;;;;;;58.60;28.45;;;;;;;;;;5056638;28;20020;-63
2021/12/08 05:32:03;;;;;;;57.72;30.83;;;;;;;;;;5074553;28;20111;-63
2021/12/08 05:34:29;;;;;;;57.08;27.92;;;;;;;;;;5074269;28;20027;-63
2021/12/08 05:36:55;;;;;;;53.25;27.58;;;;;;;;;;5074356;28;20503;-63
2021/12/08 05:39:23;;;;;;;205.80;92.05;;;;;;;;;;5074372;28;20029;-63
2021/12/08 05:41:51;;;;;;;125.88;56.03;;;;;;;;;;5073971;28;20084;-64
2021/12/08 05:44:18;;;;;;;94.68;46.15;;;;;;;;;;5074234;28;20056;-64
2021/12/08 05:46:46;;;;;;;142.90;70.15;;;;;;;;;;5073900;28;20428;-63
2021/12/08 05:49:14;;;;;;;125.88;66.10;;;;;;;;;;5073702;28;20463;-63
2021/12/08 05:51:43;;;;;;;81.38;39.00;;;;;;;;;;5073615;28;20041;-63
2021/12/08 05:54:12;;;;;;;73.72;36.70;;;;;;;;;;5073652;28;20504;-63
2021/12/08 05:56:39;;;;;;;83.68;38.92;;;;;;;;;;5055966;28;20383;-63
2021/12/08 05:59:07;;;;;;;74.95;37.10;;;;;;;;;;5073934;28;20077;-63
2021/12/08 06:01:38;;;;;;;85.80;38.38;;;;;;;;;;5073904;28;20480;-63
2021/12/08 06:04:05;;;;;;;84.20;40.28;;;;;;;;;;5073814;28;20059;-63
2021/12/08 06:06:32;;;;;;;74.00;33.33;;;;;;;;;;5055798;28;20116;-64
2021/12/08 06:09:01;;;;;;;74.70;34.92;;;;;;;;;;5073649;28;20068;-63
2021/12/08 06:11:28;;;;;;;91.07;39.53;;;;;;;;;;5073681;28;20020;-63
2021/12/08 06:13:59;;;;;;;87.47;39.42;;;;;;;;;;5073606;28;20078;-63
2021/12/08 06:16:26;;;;;;;85.45;37.75;;;;;;;;;;5073733;28;20028;-64
2021/12/08 06:18:52;;;;;;;79.75;36.28;;;;;;;;;;5073613;28;20052;-63
2021/12/08 06:21:20;;;;;;;82.82;39.40;;;;;;;;;;5073425;28;20036;-64
2021/12/08 06:23:46;;;;;;;76.57;36.85;;;;;;;;;;5073401;28;20115;-64
2021/12/08 06:26:14;;;;;;;83.20;37.10;;;;;;;;;;5073591;28;20031;-63
2021/12/08 06:28:40;;;;;;;92.82;42.53;;;;;;;;;;5055350;28;20440;-63
2021/12/08 06:31:08;;;;;;;135.60;56.15;;;;;;;;;;5073493;28;20155;-64
2021/12/08 06:33:35;;;;;;;143.38;60.95;;;;;;;;;;5073131;28;20029;-64
2021/12/08 06:36:04;;;;;;;158.57;61.88;;;;;;;;;;5073207;28;20107;-63
2021/12/08 06:38:32;;;;;;;150.38;57.90;;;;;;;;;;5073204;28;20024;-63
2021/12/08 06:41:14;;;;;;;118.60;48.40;;;;;;;;;;5073134;28;20496;-63
2021/12/08 06:43:40;;;;;;;;;;;;;;;;;;5073609;28;20039;-64
2021/12/08 06:46:06;;;;;;;60.15;24.80;;;;;;;;;;5054822;28;19908;-63
2021/12/08 06:48:37;;;;;;;54.67;22.08;;;;;;;;;;5055112;28;20107;-63
2021/12/08 06:51:14;;;;;;;63.53;21.52;;;;;;;;;;5072510;28;20556;-64
2021/12/08 06:53:42;;;;;;;48.45;22.35;;;;;;;;;;5073042;28;20041;-63
2021/12/08 06:56:11;;;;;;;44.45;22.02;;;;;;;;;;5072991;28;20059;-64
2021/12/08 06:58:38;;;;;;;58.10;24.35;;;;;;;;;;5072995;28;20074;-63
2021/12/08 07:01:36;;;;;;;61.25;23.27;;;;;;;;;;5072079;28;20048;-63
2021/12/08 07:06:59;;;;;;;44.03;21.50;;;;;;;;;;5072962;28;20350;-63
2021/12/08 07:09:36;;;;;;;53.20;22.95;;;;;;;;;;5072981;28;20087;-63
2021/12/08 07:12:06;;;;;;;47.17;22.40;;;;;;;;;;5072991;28;20341;-63
2021/12/08 07:14:33;;;;;;;53.20;23.88;;;;;;;;;;5072898;28;20032;-63
2021/12/08 07:17:05;;;;;;;56.58;24.30;;;;;;;;;;5054760;28;20393;-62
2021/12/08 07:19:42;;;;;;;49.17;22.92;;;;;;;;;;5072589;28;20029;-64
2021/12/08 07:22:11;;;;;;;45.45;22.83;;;;;;;;;;5070572;28;20070;-64
2021/12/08 07:24:39;;;;;;;49.08;22.98;;;;;;;;;;5072298;28;20028;-63
2021/12/08 07:27:07;;;;;;;73.53;34.13;;;;;;;;;;5071907;28;20138;-63
2021/12/08 07:29:35;;;;;;;75.35;38.20;;;;;;;;;;5050656;28;20112;-63
2021/12/08 07:32:04;;;;;;;61.03;31.08;;;;;;;;;;5072270;28;20013;-62
2021/12/08 07:34:32;;;;;;;77.75;36.67;;;;;;;;;;5072164;28;20150;-63
2021/12/08 07:37:01;;;;;;;106.95;50.45;;;;;;;;;;5061125;28;20761;-63
2021/12/08 07:39:30;;;;;;;132.52;62.85;;;;;;;;;;5072337;28;20036;-63
2021/12/08 07:42:02;;;;;;;109.13;53.88;;;;;;;;;;5072562;28;20021;-63
2021/12/08 07:44:29;;;;;;;91.13;43.90;;;;;;;;;;5054554;28;20035;-63
2021/12/08 07:47:01;;;;;;;81.38;43.25;;;;;;;;;;5072498;28;20021;-64
2021/12/08 07:49:47;;;;;;;90.28;43.50;;;;;;;;;;5070539;28;20032;-64
2021/12/08 07:52:16;;;;;;;99.07;45.28;;;;;;;;;;5072473;28;20080;-64
2021/12/08 07:54:43;;;;;;;118.45;54.83;;;;;;;;;;5072031;28;20644;-65
2021/12/08 07:57:12;;;;;;;121.47;57.03;;;;;;;;;;5072390;28;20033;-64
2021/12/08 07:59:41;;;;;;;126.28;59.35;;;;;;;;;;5072026;28;20104;-63
2021/12/08 08:02:07;;;;;;;111.40;51.35;;;;;;;;;;5072438;28;20439;-64
2021/12/08 08:04:35;;;;;;;92.03;43.63;;;;;;;;;;5072360;28;20029;-64
2021/12/08 08:07:01;;;;;;;87.47;43.75;;;;;;;;;;5072293;28;20029;-63
2021/12/08 08:09:31;;;;;;;131.10;65.47;;;;;;;;;;5072395;28;20111;-64
2021/12/08 08:11:59;;;;;;;137.73;69.95;;;;;;;;;;5072257;28;20020;-64
2021/12/08 08:14:27;;;;;;;127.38;62.35;;;;;;;;;;5075855;28;20071;-63
2021/12/08 08:16:56;;;;;;;134.93;66.20;;;;;;;;;;5057829;28;20024;-64
2021/12/08 08:19:27;;;;;;;113.65;56.45;;;;;;;;;;5075753;28;20050;-64
2021/12/08 08:21:56;;;;;;;97.93;49.35;;;;;;;;;;5057523;28;20028;-63
2021/12/08 08:24:22;;;;;;;97.70;46.47;;;;;;;;;;5075281;28;20107;-64
2021/12/08 08:26:50;;;;;;;108.97;52.47;;;;;;;;;;5075491;28;20114;-63
2021/12/08 08:29:18;;;;;;;106.60;53.42;;;;;;;;;;5075613;28;20522;-63
2021/12/08 08:31:59;;;;;;;109.05;52.85;;;;;;;;;;5057347;28;20029;-63
2021/12/08 08:34:34;;;;;;;100.53;50.55;;;;;;;;;;5057535;28;20025;-64
2021/12/08 08:37:00;;;;;;;111.05;55.80;;;;;;;;;;5075469;28;20021;-64
2021/12/08 08:39:29;;;;;;;109.47;53.22;;;;;;;;;;5075506;28;20128;-64
2021/12/08 08:42:01;;;;;;;122.53;57.63;;;;;;;;;;5075278;28;20035;-64
2021/12/08 08:44:40;;;;;;;81.97;41.17;;;;;;;;;;5075174;28;20021;-63
2021/12/08 08:47:09;;;;;;;65.80;33.08;;;;;;;;;;5075051;28;20112;-64
2021/12/08 08:49:35;;;;;;;65.88;30.75;;;;;;;;;;5075049;28;20107;-63
2021/12/08 08:52:08;;;;;;;70.28;34.97;;;;;;;;;;5074821;28;20041;-65
2021/12/08 08:54:37;;;;;;;61.78;33.08;;;;;;;;;;5074912;28;20119;-64
2021/12/08 08:57:08;;;;;;;64.03;32.45;;;;;;;;;;5056946;28;20465;-65
2021/12/08 08:59:40;;;;;;;71.10;37.28;;;;;;;;;;5075040;28;20024;-66
2021/12/08 09:02:08;;;;;;;62.55;33.60;;;;;;;;;;5074931;28;20020;-63
2021/12/08 09:04:37;;;;;;;64.20;33.33;;;;;;;;;;5074917;28;20559;-64
2021/12/08 09:07:05;;;;;;;59.85;30.65;;;;;;;;;;5074814;28;20031;-63
2021/12/08 09:09:34;;;;;;;54.25;28.90;;;;;;;;;;5074803;28;20354;-63
2021/12/08 09:12:00;;;;;;;46.97;25.60;;;;;;;;;;5056611;28;20024;-63
2021/12/08 09:14:28;;;;;;;54.85;28.02;;;;;;;;;;5074278;28;20114;-64
2021/12/08 09:16:57;;;;;;;57.45;27.05;;;;;;;;;;5056520;28;20021;-66
2021/12/08 09:19:26;;;;;;;47.63;25.55;;;;;;;;;;5074620;28;20077;-64
2021/12/08 09:21:59;;;;;;;50.35;27.17;;;;;;;;;;5074473;28;20115;-64
2021/12/08 09:24:48;;;;;;;48.70;24.25;;;;;;;;;;5056042;28;20028;-63
2021/12/08 09:27:27;;;;;;;41.35;23.38;;;;;;;;;;5074096;28;20017;-66
2021/12/08 09:29:57;;;;;;;35.28;19.63;;;;;;;;;;5074358;28;20063;-63
2021/12/08 09:32:32;;;;;;;33.42;18.17;;;;;;;;;;5074471;28;20457;-63
2021/12/08 09:35:01;;;;;;;34.28;20.25;;;;;;;;;;5072757;28;20111;-62
2021/12/08 09:37:31;;;;;;;42.50;24.00;;;;;;;;;;5074248;28;20028;-63
2021/12/08 09:40:22;;;;;;;35.25;19.45;;;;;;;;;;5056318;28;20099;-63
2021/12/08 09:42:51;;;;;;;32.47;19.20;;;;;;;;;;5066105;28;20489;-63
2021/12/08 09:45:29;;;;;;;27.67;16.67;;;;;;;;;;5074099;28;20086;-64
2021/12/08 09:47:55;;;;;;;29.60;15.43;;;;;;;;;;5073967;28;20025;-64
2021/12/08 09:50:22;;;;;;;29.55;17.50;;;;;;;;;;5073213;28;20566;-63
2021/12/08 09:52:48;;;;;;;31.02;16.23;;;;;;;;;;5073918;28;20056;-63
2021/12/08 09:55:16;;;;;;;29.73;15.60;;;;;;;;;;5073849;28;20031;-63
2021/12/08 09:57:42;;;;;;;27.45;15.93;;;;;;;;;;5055398;28;20439;-63
2021/12/08 10:00:11;;;;;;;27.65;16.58;;;;;;;;;;5073734;28;20033;-64
2021/12/08 10:02:38;;;;;;;38.97;23.35;;;;;;;;;;5073773;28;20044;-64
2021/12/08 10:05:09;;;;;;;26.38;15.73;;;;;;;;;;5073711;28;20060;-63
2021/12/08 10:07:37;;;;;;;32.85;17.63;;;;;;;;;;5055608;28;20032;-64
2021/12/08 10:10:04;;;;;;;45.47;22.63;;;;;;;;;;5055336;28;20381;-63
2021/12/08 10:12:33;;;;;;;49.10;22.48;;;;;;;;;;5072389;28;20017;-63
2021/12/08 10:14:59;;;;;;;76.35;41.38;;;;;;;;;;5054571;28;20064;-63
2021/12/08 10:17:26;;;;;;;36.88;17.30;;;;;;;;;;5070150;28;20464;-63
2021/12/08 10:20:07;;;;;;;26.73;13.43;;;;;;;;;;5072944;28;20024;-63
2021/12/08 10:22:33;;;;;;;22.05;11.15;;;;;;;;;;5069797;28;20075;-64
2021/12/08 10:25:14;;;;;;;21.50;12.02;;;;;;;;;;5072323;28;20036;-64
2021/12/08 10:27:59;;;;;;;30.45;15.32;;;;;;;;;;5071446;28;20063;-63
2021/12/08 10:30:25;;;;;;;35.17;16.80;;;;;;;;;;5054007;28;20063;-64
2021/12/08 10:32:53;;;;;;;36.40;18.52;;;;;;;;;;5053963;28;20134;-63
2021/12/08 10:35:41;;;;;;;71.85;43.22;;;;;;;;;;5072918;28;20082;-63
2021/12/08 10:38:07;;;;;;;34.40;17.27;;;;;;;;;;5070736;28;20051;-63
2021/12/08 10:40:33;;;;;;;36.20;17.80;;;;;;;;;;5072641;28;20012;-63
2021/12/08 10:43:12;;;;;;;31.70;15.52;;;;;;;;;;5072831;28;20024;-63
2021/12/08 10:45:37;;;;;;;26.88;15.07;;;11.00;82.30;;;;;;5072729;28;20108;-64
2021/12/08 10:48:05;;;;;;;18.27;11.27;;;;;;;;;;5072714;28;20111;-64
2021/12/08 10:56:13;;;;;;;27.05;14.80;;;;;;;;;;5052674;28;20052;-64
2021/12/08 10:58:40;;;;;;;29.17;16.48;;;;;;;;;;5051594;28;20082;-64
2021/12/08 11:01:11;;;;;;;30.95;16.08;;;;;;;;;;5049944;28;20444;-63
2021/12/08 11:03:39;;;;;;;26.85;16.30;;;;;;;;;;5051967;28;20068;-64
2021/12/08 11:06:06;;;;;;;25.58;15.48;;;;;;;;;;5050149;28;20044;-64
2021/12/08 11:08:34;;;;;;;34.20;17.80;;;;;;;;;;5051614;28;20163;-64
2021/12/08 11:11:22;;;;;;;26.50;15.50;;;;;;;;;;5052875;28;20025;-65
2021/12/08 11:13:51;;;;;;;29.88;16.98;;;;;;;;;;5051620;28;20386;-64
2021/12/08 11:16:21;;;;;;;30.42;14.60;;;;;;;;;;5052660;28;20021;-64
2021/12/08 11:18:51;;;;;;;31.07;17.40;;;;;;;;;;5051108;28;20067;-65
2021/12/08 11:21:29;;;;;;;38.63;18.30;;;;;;;;;;5032299;28;20021;-64
2021/12/08 11:23:59;;;;;;;27.38;16.08;;;;;;;;;;5032900;28;20037;-64
2021/12/08 11:26:26;;;;;;;28.65;16.63;;;;;;;;;;5032507;28;20535;-64
2021/12/08 11:28:58;;;;;;;32.58;19.05;;;;;;;;;;5032680;28;20017;-64
2021/12/08 11:31:26;;;;;;;33.88;17.80;;;;;;;;;;5031399;28;20029;-63
2021/12/08 11:34:00;;;;;;;35.35;18.00;;;;;;;;;;5032789;28;20033;-63
2021/12/08 11:36:27;;;;;;;33.53;16.60;;;;;;;;;;5032693;28;20108;-64
2021/12/08 11:38:54;;;;;;;31.65;18.15;;;;;;;;;;5031111;28;20440;-63
2021/12/08 11:41:23;;;;;;;31.70;17.27;;;;;;;;;;5030876;28;20018;-64
2021/12/08 11:43:56;;;;;;;40.75;20.67;;;;;;;;;;5031367;28;20394;-64
2021/12/08 11:46:23;;;;;;;33.78;19.40;;;;;;;;;;5030955;28;20048;-64
2021/12/08 11:48:55;;;;;;;32.38;17.95;;;;;;;;;;5035396;28;20017;-64
2021/12/08 11:51:21;;;;;;;36.35;18.05;;;;;;;;;;5049039;28;20048;-63
2021/12/08 11:53:47;;;;;;;32.22;17.25;;;;;;;;;;5075856;28;20119;-64
2021/12/08 11:56:34;;;;;;;26.42;16.77;;;;;;;;;;5075641;28;20028;-63
2021/12/08 11:59:01;;;;;;;27.45;16.13;;;;;;;;;;5075912;28;20025;-63
2021/12/08 12:01:27;;;;;;;27.45;16.00;;;;;;;;;;5058269;28;20016;-63
2021/12/08 12:03:55;;;;;;;29.98;16.90;;;;;;;;;;5076043;28;20033;-63
2021/12/08 12:06:27;;;;;;;28.10;16.00;;;;;;;;;;5075805;28;20104;-63
2021/12/08 12:08:55;;;;;;;26.80;15.32;;;;;;;;;;5058098;28;20025;-63
2021/12/08 12:11:24;;;;;;;25.13;15.45;;;;;;;;;;5075674;28;20437;-63
2021/12/08 12:13:50;;;;;;;30.63;16.63;;;;;;;;;;5057925;28;20131;-63
2021/12/08 12:16:17;;;;;;;27.02;16.40;;;;;;;;;;5075814;28;20020;-63
2021/12/08 12:18:44;;;;;;;33.20;17.70;;;;;;;;;;5074893;28;20033;-63
2021/12/08 12:21:10;;;;;;;40.15;19.42;;;;;;;;;;5073983;28;20036;-63
2021/12/08 12:23:47;;;;;;;41.95;20.02;;;;;;;;;;5057613;28;20107;-63
2021/12/08 12:26:25;;;;;;;36.75;20.02;;;;;;;;;;5074388;28;20418;-63
2021/12/08 12:28:54;;;;;;;41.05;22.25;;;;;;;;;;5075610;28;20519;-63
2021/12/08 12:31:31;;;;;;;39.60;20.30;;;;;;;;;;5057617;28;20059;-63
2021/12/08 12:33:57;;;;;;;43.78;22.92;;;;;;;;;;5057752;28;20037;-63
2021/12/08 12:36:34;;;;;;;61.47;32.30;;;;;;;;;;5075577;28;20056;-63
2021/12/08 12:39:15;;;;;;;43.00;25.17;;;;;;;;;;5075868;28;20032;-63
2021/12/08 12:41:42;;;;;;;50.22;24.98;;;;;;;;;;5075307;28;20025;-63
2021/12/08 12:44:19;;;;;;;50.10;25.83;;;;;;;;;;5075412;28;20360;-63
2021/12/08 12:47:09;;;;;;;49.72;25.90;;;;;;;;;;5057245;28;20112;-62
2021/12/08 12:49:36;;;;;;;38.17;20.45;;;;;;;;;;5057132;28;20073;-63
2021/12/08 12:52:04;;;;;;;41.60;19.90;;;;;;;;;;5074855;28;20090;-63
2021/12/08 12:54:31;;;;;;;35.97;19.42;;;;;;;;;;5074909;28;20531;-63
2021/12/08 12:57:00;;;;;;;32.80;18.02;;;;;;;;;;5074946;28;20376;-63
2021/12/08 12:59:52;;;;;;;35.47;18.67;;;;;;;;;;5074313;28;20020;-63
2021/12/08 13:02:28;;;;;;;29.65;16.27;;;;;;;;;;5056850;28;20032;-62
2021/12/08 13:05:02;;;;;;;40.72;19.95;;;;;;;;;;5075104;28;20134;-63
2021/12/08 13:07:30;;;;;;;57.67;26.83;;;;;;;;;;5075051;28;20017;-62
2021/12/08 13:09:56;;;;;;;45.95;21.33;;;;;;;;;;5075300;28;20387;-63
2021/12/08 13:12:25;;;;;;;49.55;21.98;;;;;;;;;;5056929;28;20453;-63
2021/12/08 13:15:06;;;;;;;41.28;20.98;;;;;;;;;;5056753;28;20473;-63
2021/12/08 13:17:33;;;;;;;52.63;24.40;;;;;;;;;;5056759;28;20035;-63
2021/12/08 13:20:00;;;;;;;41.63;20.17;;;;;;;;;;5074642;28;20027;-63
2021/12/08 13:23:01;;;;;;;42.55;20.17;;;;;;;;;;5056715;28;20475;-63
2021/12/08 13:25:32;;;;;;;41.55;21.80;;;;;;;;;;4992936;28;20030;-63
2021/12/08 13:28:09;;;;;;;47.92;22.42;;;;;;;;;;4993069;28;20484;-63
2021/12/08 13:30:46;;;;;;;32.50;18.48;;;;;;;;;;4992891;28;20515;-64
2021/12/08 13:33:26;;;;;;;33.40;17.00;;;;;;;;;;4992655;28;20034;-63
2021/12/08 13:35:55;;;;;;;34.20;18.92;;;;;;;;;;4992701;28;20550;-62
2021/12/08 13:38:23;;;;;;;34.78;17.55;;;;;;;;;;4992688;28;20150;-64
2021/12/08 13:40:53;;;;;;;41.42;19.83;;;;;;;;;;4992726;28;20039;-63
2021/12/08 13:43:46;;;;;;;38.95;17.90;;;;;;;;;;4992695;28;20089;-62
2021/12/08 13:46:32;;;;;;;33.53;17.65;;;;;;;;;;4990845;28;20039;-64
2021/12/08 13:49:15;;;;;;;46.35;18.58;;;;;;;;;;4992397;28;20158;-62
2021/12/08 13:51:42;;;;;;;34.65;18.05;;;;;;;;;;4976429;28;20587;-63
2021/12/08 13:54:24;;;;;;;37.97;19.45;;;;;;;;;;4953512;29;20043;-63
2021/12/08 13:56:50;;;;;;;;;;;;;;;;;;4954412;29;20089;-63
2021/12/08 13:59:35;;;;;;;56.38;25.42;;;;;;;;;;4953490;29;19906;-62
2021/12/08 14:02:19;;;;;;;45.70;22.55;;;;;;;;;;5022833;28;20034;-62
2021/12/08 14:04:46;;;;;;;37.33;18.85;;;;;;;;;;5014203;28;20075;-63
2021/12/08 14:07:16;;;;;;;46.55;22.38;;;;;;;;;;5012868;28;20057;-63
2021/12/08 14:09:42;;;;;;;49.58;26.85;;;;;;;;;;5014050;28;20103;-63
2021/12/08 14:12:08;;;;;;;43.70;23.15;;;;;;;;;;5013853;28;20022;-63
2021/12/08 14:14:34;;;;;;;47.53;24.55;;;;;;;;;;5013811;28;20101;-63
2021/12/08 14:17:01;;;;;;;57.75;28.42;;;;;;;;;;5013976;28;20459;-63
2021/12/08 14:19:40;;;;;;;51.05;27.38;;;;;;;;;;5013921;28;20097;-63
2021/12/08 14:22:07;;;;;;;60.53;30.75;;;;;;;;;;5013642;28;20025;-63
2021/12/08 14:24:39;;;;;;;59.20;29.13;;;;;;;;;;5014115;28;20121;-63
2021/12/08 14:27:10;;;;;;;60.05;29.25;;;;;;;;;;5013880;28;20029;-63
2021/12/08 14:29:36;;;;;;;54.13;26.80;;;;;;;;;;5013915;28;20104;-63
2021/12/08 14:32:02;;;;;;;53.70;24.95;;;;;;;;;;5014071;28;20112;-63
2021/12/08 14:34:29;;;;;;;48.20;23.08;;;;;;;;;;5013400;28;20120;-63
2021/12/08 14:36:56;;;;;;;50.42;24.70;;;;;;;;;;5013965;28;20348;-63
2021/12/08 14:39:37;;;;;;;51.42;23.60;;;;;;;;;;5013690;28;20022;-63
2021/12/08 14:42:13;;;;;;;48.50;23.73;;;;;;;;;;5013664;28;20083;-63
2021/12/08 14:44:44;;;;;;;58.28;27.48;;;;;;;;;;5013621;28;20022;-63
2021/12/08 14:47:11;;;;;;;55.40;26.98;;;;;;;;;;5013605;28;20116;-63
2021/12/08 14:49:42;;;;;;;58.97;30.42;;;;;;;;;;5013535;28;20378;-63
2021/12/08 14:52:10;;;;;;;65.63;29.65;;;;;;;;;;5027106;28;20046;-63
2021/12/08 14:54:37;;;;;;;77.65;32.30;;;;;;;;;;5031699;28;20048;-62
2021/12/08 14:57:24;;;;;;;72.05;33.47;;;;;;;;;;5033380;28;20581;-63
2021/12/08 14:59:52;;;;;;;110.22;47.28;;;;;;;;;;4968187;28;20031;-63
2021/12/08 15:02:31;;;;;;;100.82;43.92;;;;;;;;;;4971459;28;20097;-63
2021/12/08 15:04:58;;;;;;;102.28;46.42;;;;;;;;;;4970802;28;20070;-64
2021/12/08 15:07:25;;;;;;;110.40;48.85;;;;;;;;;;4971638;28;20399;-62
2021/12/08 15:09:59;;;;;;;84.93;42.33;;;;;;;;;;4971440;28;20046;-62
2021/12/08 15:12:25;;;;;;;74.07;36.58;;;;;;;;;;4971664;28;20054;-64
2021/12/08 15:14:51;;;;;;;72.28;34.38;;;;;;;;;;4971285;28;20176;-64
2021/12/08 15:17:26;;;;;;;87.30;38.55;;;;;;;;;;4971815;28;20113;-63